createdAt,value
2019-03-18T00:00:01.553Z,5.63
2019-03-18T00:05:01.399Z,5.90
2019-03-18T00:10:01.107Z,5.99
2019-03-18T00:15:02.098Z,6.13
2019-03-18T00:20:01.053Z,6.39
2019-03-18T00:25:03.803Z,6.52
2019-03-18T00:30:01.055Z,6.86
2019-03-18T00:35:01.556Z,7.70
2019-03-18T00:40:01.036Z,8.73
2019-03-18T00:45:13.759Z,9.18
2019-03-18T00:50:01.068Z,9.05
2019-03-18T00:55:01.057Z,8.66
2019-03-18T01:00:01.105Z,8.50
2019-03-18T01:05:01.612Z,8.33
2019-03-18T01:10:01.059Z,8.11
2019-03-18T01:15:01.389Z,7.85
2019-03-18T01:20:01.402Z,7.98
2019-03-18T01:25:01.055Z,8.02
2019-03-18T01:30:01.063Z,7.90
2019-03-18T01:35:01.075Z,7.95
2019-03-18T01:40:01.043Z,8.60
2019-03-18T01:45:01.065Z,9.80
2019-03-18T01:50:01.386Z,9.99
2019-03-18T01:55:01.050Z,9.68
2019-03-18T02:00:01.320Z,9.59
2019-03-18T02:05:01.039Z,9.33
2019-03-18T02:10:01.035Z,9.19
2019-03-18T02:15:01.053Z,9.38
2019-03-18T02:20:01.432Z,9.60
2019-03-18T02:25:01.410Z,9.54
2019-03-18T02:30:01.044Z,9.53
2019-03-18T02:35:01.048Z,9.41
2019-03-18T02:40:01.062Z,9.37
2019-03-18T02:45:01.050Z,9.29
2019-03-18T02:50:01.115Z,9.16
2019-03-18T02:55:01.356Z,9.13
2019-03-18T03:00:01.080Z,9.11
2019-03-18T03:05:01.046Z,9.00
2019-03-18T03:10:01.046Z,8.76
2019-03-18T03:15:01.486Z,8.48
2019-03-18T03:20:01.568Z,8.33
2019-03-18T03:25:01.049Z,8.20
2019-03-18T03:30:01.039Z,8.00
2019-03-18T03:35:01.629Z,7.79
2019-03-18T03:40:01.055Z,7.58
2019-03-18T03:45:01.076Z,7.30
2019-03-18T03:50:01.055Z,7.10
2019-03-18T03:55:01.514Z,6.77
2019-03-18T04:00:01.058Z,6.56
2019-03-18T04:05:01.061Z,6.65
2019-03-18T04:10:01.433Z,6.57
2019-03-18T04:15:01.036Z,6.51
2019-03-18T04:20:01.056Z,6.39
2019-03-18T04:25:01.051Z,6.22
2019-03-18T04:30:01.097Z,6.02
2019-03-18T04:35:01.027Z,5.73
2019-03-18T04:40:01.047Z,5.52
2019-03-18T04:45:01.113Z,5.39
2019-03-18T04:50:01.066Z,5.44
2019-03-18T04:55:01.120Z,5.37
2019-03-18T05:00:01.062Z,5.18
2019-03-18T05:05:01.173Z,5.09
2019-03-18T05:10:01.052Z,4.96
2019-03-18T05:15:01.177Z,4.82
2019-03-18T05:20:01.136Z,4.71
2019-03-18T05:25:01.126Z,4.62
2019-03-18T05:30:01.057Z,4.51
2019-03-18T05:35:01.105Z,4.40
2019-03-18T05:40:08.215Z,4.33
2019-03-18T05:45:01.042Z,4.26
2019-03-18T05:50:01.071Z,4.23
2019-03-18T05:55:01.162Z,4.23
2019-03-18T06:00:01.081Z,4.23
2019-03-18T06:05:01.047Z,4.15
2019-03-18T06:10:01.044Z,4.13
2019-03-18T06:15:01.069Z,4.11
2019-03-18T06:20:01.050Z,4.10
2019-03-18T06:25:01.074Z,4.09
2019-03-18T06:30:01.078Z,4.07
2019-03-18T06:35:01.264Z,3.98
2019-03-18T06:40:01.031Z,4.00
2019-03-18T06:45:01.235Z,3.91
2019-03-18T06:50:01.083Z,3.80
2019-03-18T06:55:02.361Z,3.68
2019-03-18T07:00:02.853Z,3.55
2019-03-18T07:05:01.058Z,3.47
2019-03-18T07:10:01.079Z,3.41
2019-03-18T07:15:01.073Z,3.41
2019-03-18T07:20:01.064Z,3.42
2019-03-18T07:25:05.300Z,3.39
2019-03-18T07:30:01.091Z,3.42
2019-03-18T07:35:01.377Z,3.49
2019-03-18T07:40:01.763Z,3.53
2019-03-18T07:45:01.079Z,3.55
2019-03-18T07:50:01.326Z,3.66
2019-03-18T07:55:01.767Z,3.76
2019-03-18T08:00:01.823Z,3.74
2019-03-18T08:05:01.305Z,3.74
2019-03-18T08:10:01.346Z,3.65
2019-03-18T08:15:01.576Z,3.71
2019-03-18T08:20:03.304Z,3.74
2019-03-18T08:25:01.329Z,3.73
2019-03-18T08:30:01.326Z,3.76
2019-03-18T08:35:01.692Z,3.86
2019-03-18T08:40:01.359Z,3.99
2019-03-18T08:45:01.322Z,4.07
2019-03-18T08:50:01.065Z,3.97
2019-03-18T08:55:01.129Z,3.97
2019-03-18T09:00:01.064Z,3.94
2019-03-18T09:05:01.073Z,3.95
2019-03-18T09:10:01.391Z,3.95
2019-03-18T09:15:01.054Z,3.93
2019-03-18T09:20:01.083Z,4.00
2019-03-18T09:25:01.915Z,4.18
2019-03-18T09:30:01.940Z,4.19
2019-03-18T09:35:01.121Z,4.39
2019-03-18T09:40:03.013Z,4.41
2019-03-18T09:45:01.063Z,4.38
2019-03-18T09:50:01.057Z,4.23
2019-03-18T09:55:01.072Z,4.22
2019-03-18T10:00:01.072Z,4.33
2019-03-18T10:05:01.474Z,4.52
2019-03-18T10:10:01.428Z,4.68
2019-03-18T10:15:01.604Z,4.82
2019-03-18T10:20:03.484Z,4.79
2019-03-18T10:25:04.177Z,4.71
2019-03-18T10:30:01.101Z,4.76
2019-03-18T10:35:01.055Z,4.99
2019-03-18T10:40:01.197Z,5.00
2019-03-18T10:45:01.070Z,4.92
2019-03-18T10:50:01.062Z,4.86
2019-03-18T10:55:01.111Z,4.83
2019-03-18T11:00:01.458Z,4.80
2019-03-18T11:05:01.658Z,4.88
2019-03-18T11:10:01.068Z,4.93
2019-03-18T11:15:01.390Z,5.23
2019-03-18T11:20:01.895Z,5.18
2019-03-18T11:25:01.091Z,5.16
2019-03-18T11:30:03.551Z,5.28
2019-03-18T11:35:01.389Z,5.31
2019-03-18T11:40:01.250Z,5.52
2019-03-18T11:45:01.118Z,5.46
2019-03-18T11:50:11.058Z,5.57
2019-03-18T11:55:01.255Z,5.58
2019-03-18T12:00:01.304Z,5.29
2019-03-18T12:05:01.325Z,5.37
2019-03-18T12:10:01.971Z,5.52
2019-03-18T12:15:01.720Z,5.63
2019-03-18T12:20:01.370Z,5.65
2019-03-18T12:25:01.718Z,5.57
2019-03-18T12:30:01.290Z,5.55
2019-03-18T12:35:01.739Z,5.55
2019-03-18T12:40:01.320Z,5.57
2019-03-18T12:45:01.278Z,5.57
2019-03-18T12:50:01.082Z,5.53
2019-03-18T12:55:01.106Z,5.53
2019-03-18T13:00:01.124Z,5.56
2019-03-18T13:05:01.088Z,5.67
2019-03-18T13:10:01.444Z,5.64
2019-03-18T13:15:01.150Z,5.70
2019-03-18T13:20:01.055Z,5.87
2019-03-18T13:25:01.099Z,5.97
2019-03-18T13:30:01.085Z,5.92
2019-03-18T13:35:01.057Z,6.02
2019-03-18T13:40:01.088Z,5.98
2019-03-18T13:45:01.504Z,6.04
2019-03-18T13:50:01.094Z,5.78
2019-03-18T13:55:01.117Z,5.91
2019-03-18T14:00:01.091Z,6.02
2019-03-18T14:05:01.073Z,5.99
2019-03-18T14:10:01.318Z,5.91
2019-03-18T14:15:01.106Z,5.92
2019-03-18T14:20:01.514Z,5.89
2019-03-18T14:25:01.117Z,5.91
2019-03-18T14:30:01.584Z,6.06
2019-03-18T14:35:01.471Z,6.06
2019-03-18T14:40:01.111Z,6.07
2019-03-18T14:45:01.368Z,6.07
2019-03-18T14:50:01.161Z,6.10
2019-03-18T14:55:01.516Z,6.01
2019-03-18T15:00:01.102Z,5.92
2019-03-18T15:05:01.082Z,5.94
2019-03-18T15:10:01.093Z,5.90
2019-03-18T15:15:01.070Z,5.89
2019-03-18T15:20:01.087Z,5.83
2019-03-18T15:25:01.065Z,5.87
2019-03-18T15:30:01.066Z,5.83
2019-03-18T15:35:01.065Z,5.90
2019-03-18T15:40:01.087Z,5.95
2019-03-18T15:45:03.024Z,5.92
2019-03-18T15:50:01.069Z,5.80
2019-03-18T15:55:01.757Z,5.75
2019-03-18T16:00:01.504Z,5.71
2019-03-18T16:05:01.546Z,5.73
2019-03-18T16:35:01.082Z,5.46
2019-03-18T16:40:01.117Z,5.39
2019-03-18T16:45:01.353Z,5.30
2019-03-18T16:50:01.101Z,5.26
2019-03-18T16:55:01.158Z,5.24
2019-03-18T17:00:01.121Z,5.20
2019-03-18T17:05:01.114Z,5.11
2019-03-18T17:10:01.505Z,4.96
2019-03-18T17:15:01.162Z,4.80
2019-03-18T17:20:01.113Z,4.67
2019-03-18T17:25:01.422Z,4.52
2019-03-18T17:30:01.110Z,4.39
2019-03-18T17:35:01.812Z,4.28
2019-03-18T17:40:01.084Z,4.17
2019-03-18T17:45:01.544Z,4.13
2019-03-18T17:50:01.559Z,4.08
2019-03-18T17:55:01.085Z,4.05
2019-03-18T18:00:01.076Z,4.05
2019-03-18T18:05:03.175Z,3.96
2019-03-18T18:10:01.103Z,3.89
2019-03-18T18:15:01.097Z,3.86
2019-03-18T18:20:01.094Z,3.84
2019-03-18T18:25:01.091Z,3.84
2019-03-18T18:30:01.096Z,3.77
2019-03-18T18:35:01.122Z,3.73
2019-03-18T18:40:01.175Z,3.72
2019-03-18T18:45:01.083Z,3.67
2019-03-18T18:50:01.149Z,3.64
2019-03-18T18:55:01.057Z,3.61
2019-03-18T19:00:06.502Z,3.63
2019-03-18T19:05:01.424Z,3.60
2019-03-18T19:10:01.300Z,3.54
2019-03-18T19:15:01.144Z,3.48
2019-03-18T19:20:01.193Z,3.45
2019-03-18T19:25:01.119Z,3.34
2019-03-18T19:30:01.259Z,3.23
2019-03-18T19:35:01.114Z,3.24
2019-03-18T19:40:01.149Z,3.25
2019-03-18T19:45:01.330Z,3.23
2019-03-18T19:50:01.209Z,3.25
2019-03-18T19:55:01.225Z,3.30
2019-03-18T20:00:01.227Z,3.23
2019-03-18T20:05:01.201Z,3.13
2019-03-18T20:10:01.598Z,3.05
2019-03-18T20:15:01.069Z,2.97
2019-03-18T20:20:01.598Z,2.97
2019-03-18T20:25:01.167Z,2.95
2019-03-18T20:30:04.187Z,2.91
2019-03-18T20:35:01.161Z,2.85
2019-03-18T20:40:01.101Z,2.81
2019-03-18T20:45:01.123Z,2.84
2019-03-18T20:50:01.359Z,2.74
2019-03-18T20:55:01.154Z,2.63
2019-03-18T21:00:01.286Z,2.60
2019-03-18T21:05:01.096Z,2.61
2019-03-18T21:10:01.416Z,2.57
2019-03-18T21:15:01.128Z,2.53
2019-03-18T21:20:01.337Z,2.48
2019-03-18T21:25:01.105Z,2.44
2019-03-18T21:30:01.260Z,2.46
2019-03-18T21:35:01.567Z,2.42
2019-03-18T21:40:01.289Z,2.37
2019-03-18T21:45:01.450Z,2.36
2019-03-18T21:50:01.129Z,2.24
2019-03-18T21:55:01.564Z,2.24
2019-03-18T22:00:01.123Z,2.20
2019-03-18T22:05:01.150Z,2.14
2019-03-18T22:10:01.400Z,2.11
2019-03-18T22:15:01.142Z,2.07
2019-03-18T22:20:01.155Z,2.07
2019-03-18T22:25:01.277Z,2.07
2019-03-18T22:30:01.343Z,2.07
2019-03-18T22:35:01.081Z,2.13
2019-03-18T22:40:01.174Z,2.12
2019-03-18T22:45:01.105Z,2.07
2019-03-18T22:50:01.128Z,2.07
2019-03-18T22:55:01.114Z,2.10
2019-03-18T23:00:01.388Z,2.03
2019-03-18T23:05:01.065Z,2.00
2019-03-18T23:10:01.367Z,1.91
2019-03-18T23:15:01.052Z,1.85
2019-03-18T23:20:01.448Z,1.85
2019-03-18T23:25:07.105Z,1.78
2019-03-18T23:30:01.089Z,1.73
2019-03-18T23:35:01.101Z,1.63
2019-03-18T23:40:01.096Z,1.60
2019-03-18T23:45:01.098Z,1.53
2019-03-18T23:50:01.076Z,1.47
2019-03-18T23:55:01.397Z,1.43
